N850SB LFLY-LESU
Flight info
| Callsign | N850SB |
|---|---|
| Flight time | 1h 15m |
| Altitude | 17000 |
| Route | MURRO T544 GAI B31 PUMAL N31 MAMUK L110 LATRO |
| Aircraft | TBM8/L-SDFGRWY/S |
Departure
| Time | 2026-05-07 14:48 |
|---|---|
| Airport | Lyon Bron Airport (LFLY) |
Arrival
| Time | 2026-05-07 16:03 |
|---|---|
| Airport | Pirineus - la Seu d'Urgel Airport (LESU) |
| Time | Latitude | Longitude | Altitude | Speed | Heading |
|---|---|---|---|---|---|
| 2026-05-07 14:30 | 45.73041 | 4.93883 | 649 ft | 0 kts | 342° |
| 2026-05-07 14:40 | 45.73061 | 4.93888 | 649 ft | 8 kts | 38° |
| 2026-05-07 14:40 | 45.73074 | 4.93928 | 649 ft | 1 kts | 84° |
| 2026-05-07 14:41 | 45.73074 | 4.93956 | 649 ft | 5 kts | 104° |
| 2026-05-07 14:41 | 45.73027 | 4.93993 | 649 ft | 11 kts | 165° |
| 2026-05-07 14:41 | 45.72937 | 4.94038 | 649 ft | 17 kts | 152° |
| 2026-05-07 14:41 | 45.72819 | 4.94117 | 649 ft | 21 kts | 163° |
| 2026-05-07 14:42 | 45.72664 | 4.94182 | 649 ft | 24 kts | 164° |
| 2026-05-07 14:42 | 45.72509 | 4.94250 | 649 ft | 22 kts | 162° |
| 2026-05-07 14:42 | 45.72384 | 4.94310 | 649 ft | 15 kts | 148° |
| 2026-05-07 14:42 | 45.72308 | 4.94381 | 649 ft | 11 kts | 153° |
| 2026-05-07 14:43 | 45.72241 | 4.94408 | 649 ft | 8 kts | 165° |
| 2026-05-07 14:43 | 45.72190 | 4.94430 | 649 ft | 8 kts | 163° |
| 2026-05-07 14:43 | 45.72122 | 4.94464 | 649 ft | 13 kts | 162° |
| 2026-05-07 14:43 | 45.72019 | 4.94502 | 649 ft | 18 kts | 160° |
| 2026-05-07 14:44 | 45.71921 | 4.94580 | 649 ft | 16 kts | 116° |
| 2026-05-07 14:44 | 45.71916 | 4.94610 | 649 ft | 0 kts | 92° |
| 2026-05-07 14:46 | 45.71918 | 4.94654 | 649 ft | 10 kts | 73° |
| 2026-05-07 14:47 | 45.71964 | 4.94726 | 649 ft | 5 kts | 22° |
| 2026-05-07 14:47 | 45.72019 | 4.94723 | 649 ft | 13 kts | 345° |
| 2026-05-07 14:47 | 45.72197 | 4.94649 | 649 ft | 49 kts | 344° |
| 2026-05-07 14:47 | 45.72688 | 4.94437 | 720 ft | 89 kts | 341° |
| 2026-05-07 14:48 | 45.73331 | 4.94125 | 979 ft | 104 kts | 339° |
| 2026-05-07 14:48 | 45.74045 | 4.93753 | 1291 ft | 119 kts | 345° |
| 2026-05-07 14:48 | 45.74883 | 4.93504 | 1733 ft | 123 kts | 345° |
| 2026-05-07 14:48 | 45.75700 | 4.93152 | 2247 ft | 123 kts | 343° |
| 2026-05-07 14:49 | 45.76525 | 4.92796 | 2723 ft | 124 kts | 343° |
| 2026-05-07 14:49 | 45.77357 | 4.92445 | 3163 ft | 125 kts | 343° |
| 2026-05-07 14:49 | 45.78193 | 4.92072 | 3643 ft | 126 kts | 343° |
| 2026-05-07 14:49 | 45.79016 | 4.91647 | 4141 ft | 129 kts | 328° |
| 2026-05-07 14:50 | 45.79524 | 4.90601 | 4568 ft | 134 kts | 281° |
| 2026-05-07 14:50 | 45.79416 | 4.89267 | 4950 ft | 137 kts | 258° |
| 2026-05-07 14:50 | 45.79274 | 4.87913 | 5344 ft | 137 kts | 264° |
| 2026-05-07 14:50 | 45.79167 | 4.86556 | 5756 ft | 137 kts | 264° |
| 2026-05-07 14:51 | 45.79073 | 4.85192 | 6198 ft | 138 kts | 264° |
| 2026-05-07 14:51 | 45.78968 | 4.83827 | 6603 ft | 138 kts | 263° |
| 2026-05-07 14:51 | 45.78871 | 4.82460 | 7007 ft | 138 kts | 263° |
| 2026-05-07 14:51 | 45.78774 | 4.81089 | 7390 ft | 138 kts | 263° |
| 2026-05-07 14:52 | 45.78679 | 4.79716 | 7785 ft | 139 kts | 262° |
| 2026-05-07 14:52 | 45.78580 | 4.78339 | 8174 ft | 139 kts | 262° |
| 2026-05-07 14:52 | 45.78484 | 4.76953 | 8576 ft | 139 kts | 261° |
| 2026-05-07 14:52 | 45.78388 | 4.75570 | 8977 ft | 140 kts | 261° |
| 2026-05-07 14:53 | 45.78287 | 4.74167 | 9316 ft | 144 kts | 261° |
| 2026-05-07 14:53 | 45.78181 | 4.72722 | 9712 ft | 146 kts | 260° |
| 2026-05-07 14:53 | 45.77915 | 4.71353 | 10127 ft | 143 kts | 233° |
| 2026-05-07 14:53 | 45.77120 | 4.70537 | 10516 ft | 144 kts | 204° |
| 2026-05-07 14:54 | 45.76216 | 4.69899 | 10902 ft | 145 kts | 208° |
| 2026-05-07 14:54 | 45.75326 | 4.69221 | 11302 ft | 146 kts | 207° |
| 2026-05-07 14:54 | 45.74427 | 4.68539 | 11691 ft | 147 kts | 208° |
| 2026-05-07 14:54 | 45.73529 | 4.67859 | 12082 ft | 148 kts | 208° |
| 2026-05-07 14:55 | 45.72616 | 4.67164 | 12485 ft | 149 kts | 208° |
| 2026-05-07 14:55 | 45.71698 | 4.66471 | 12870 ft | 150 kts | 208° |
| 2026-05-07 14:55 | 45.70774 | 4.65769 | 13245 ft | 151 kts | 208° |
| 2026-05-07 14:55 | 45.69839 | 4.65062 | 13623 ft | 153 kts | 208° |
| 2026-05-07 14:56 | 45.68898 | 4.64349 | 13991 ft | 154 kts | 208° |
| 2026-05-07 14:56 | 45.67950 | 4.63628 | 14346 ft | 154 kts | 208° |
| 2026-05-07 14:56 | 45.66996 | 4.62907 | 14691 ft | 156 kts | 208° |
| 2026-05-07 14:56 | 45.66048 | 4.62188 | 15027 ft | 157 kts | 208° |
| 2026-05-07 14:57 | 45.65080 | 4.61457 | 15374 ft | 158 kts | 209° |
| 2026-05-07 14:57 | 45.64108 | 4.60723 | 15724 ft | 158 kts | 209° |
| 2026-05-07 14:57 | 45.63133 | 4.59983 | 16072 ft | 159 kts | 209° |
| 2026-05-07 14:57 | 45.62150 | 4.59243 | 16431 ft | 160 kts | 209° |
| 2026-05-07 14:58 | 45.61162 | 4.58495 | 16779 ft | 161 kts | 210° |
| 2026-05-07 14:58 | 45.60155 | 4.57736 | 16997 ft | 171 kts | 210° |
| 2026-05-07 14:58 | 45.59046 | 4.56885 | 17011 ft | 190 kts | 210° |
| 2026-05-07 14:58 | 45.57822 | 4.55954 | 17008 ft | 207 kts | 210° |
| 2026-05-07 14:59 | 45.56501 | 4.54963 | 17011 ft | 221 kts | 209° |
| 2026-05-07 14:59 | 45.55106 | 4.53918 | 17010 ft | 231 kts | 209° |
| 2026-05-07 14:59 | 45.53687 | 4.52852 | 17007 ft | 238 kts | 209° |
| 2026-05-07 14:59 | 45.52197 | 4.51731 | 17003 ft | 244 kts | 209° |
| 2026-05-07 15:00 | 45.50677 | 4.50590 | 17005 ft | 248 kts | 209° |
| 2026-05-07 15:00 | 45.49140 | 4.49434 | 17004 ft | 251 kts | 209° |
| 2026-05-07 15:00 | 45.47585 | 4.48267 | 17004 ft | 254 kts | 209° |
| 2026-05-07 15:00 | 45.46009 | 4.47087 | 17004 ft | 258 kts | 208° |
| 2026-05-07 15:01 | 45.44394 | 4.45886 | 16997 ft | 265 kts | 209° |
| 2026-05-07 15:01 | 45.42750 | 4.44645 | 17002 ft | 269 kts | 209° |
| 2026-05-07 15:01 | 45.41647 | 4.43816 | 17008 ft | 272 kts | 208° |
| 2026-05-07 15:01 | 45.39964 | 4.42555 | 17007 ft | 274 kts | 208° |
| 2026-05-07 15:02 | 45.38267 | 4.41284 | 17004 ft | 277 kts | 208° |
| 2026-05-07 15:02 | 45.36555 | 4.40004 | 17002 ft | 279 kts | 208° |
| 2026-05-07 15:02 | 45.34831 | 4.38716 | 17003 ft | 280 kts | 208° |
| 2026-05-07 15:02 | 45.33164 | 4.37293 | 16996 ft | 280 kts | 219° |
| 2026-05-07 15:03 | 45.31841 | 4.35268 | 16996 ft | 281 kts | 232° |
| 2026-05-07 15:03 | 45.30652 | 4.33057 | 16997 ft | 282 kts | 232° |
| 2026-05-07 15:03 | 45.29417 | 4.30896 | 16997 ft | 282 kts | 230° |
| 2026-05-07 15:03 | 45.28143 | 4.28774 | 16998 ft | 282 kts | 230° |
| 2026-05-07 15:04 | 45.26882 | 4.26637 | 17002 ft | 283 kts | 230° |
| 2026-05-07 15:04 | 45.25626 | 4.24484 | 16997 ft | 283 kts | 230° |
| 2026-05-07 15:04 | 45.24366 | 4.22337 | 17000 ft | 284 kts | 230° |
| 2026-05-07 15:04 | 45.23099 | 4.20183 | 16999 ft | 284 kts | 230° |
| 2026-05-07 15:05 | 45.21833 | 4.18034 | 16999 ft | 284 kts | 230° |
| 2026-05-07 15:05 | 45.20584 | 4.15911 | 16997 ft | 284 kts | 230° |
| 2026-05-07 15:05 | 45.19319 | 4.13765 | 16996 ft | 283 kts | 230° |
| 2026-05-07 15:05 | 45.18051 | 4.11616 | 16998 ft | 284 kts | 230° |
| 2026-05-07 15:06 | 45.16787 | 4.09472 | 16998 ft | 284 kts | 230° |
| 2026-05-07 15:06 | 45.15520 | 4.07329 | 16998 ft | 283 kts | 230° |
| 2026-05-07 15:06 | 45.14254 | 4.05188 | 16995 ft | 283 kts | 230° |
| 2026-05-07 15:06 | 45.12989 | 4.03045 | 16995 ft | 283 kts | 230° |
| 2026-05-07 15:07 | 45.11722 | 4.00909 | 16994 ft | 283 kts | 230° |
| 2026-05-07 15:07 | 45.10456 | 3.98773 | 16997 ft | 283 kts | 229° |
| 2026-05-07 15:07 | 45.09189 | 3.96635 | 16997 ft | 283 kts | 229° |
| 2026-05-07 15:07 | 45.07922 | 3.94496 | 16998 ft | 284 kts | 229° |
| 2026-05-07 15:08 | 45.06652 | 3.92360 | 16996 ft | 284 kts | 229° |
| 2026-05-07 15:08 | 45.05381 | 3.90221 | 16998 ft | 284 kts | 229° |
| 2026-05-07 15:08 | 45.04114 | 3.88090 | 16998 ft | 283 kts | 229° |
| 2026-05-07 15:08 | 45.02844 | 3.85955 | 16998 ft | 283 kts | 229° |
| 2026-05-07 15:09 | 45.01575 | 3.83824 | 16998 ft | 283 kts | 229° |
| 2026-05-07 15:09 | 45.00323 | 3.81727 | 16998 ft | 283 kts | 229° |
| 2026-05-07 15:09 | 44.99053 | 3.79592 | 16995 ft | 283 kts | 229° |
| 2026-05-07 15:09 | 44.97782 | 3.77461 | 16995 ft | 284 kts | 229° |
| 2026-05-07 15:10 | 44.96507 | 3.75328 | 16995 ft | 284 kts | 229° |
| 2026-05-07 15:10 | 44.95233 | 3.73199 | 16994 ft | 284 kts | 229° |
| 2026-05-07 15:10 | 44.93960 | 3.71069 | 16993 ft | 284 kts | 229° |
| 2026-05-07 15:10 | 44.92684 | 3.68938 | 16994 ft | 285 kts | 229° |
| 2026-05-07 15:11 | 44.91407 | 3.66806 | 16990 ft | 284 kts | 229° |
| 2026-05-07 15:11 | 44.90125 | 3.64669 | 16990 ft | 284 kts | 229° |
| 2026-05-07 15:11 | 44.88848 | 3.62536 | 16988 ft | 284 kts | 229° |
| 2026-05-07 15:11 | 44.87570 | 3.60411 | 16986 ft | 284 kts | 229° |
| 2026-05-07 15:12 | 44.86290 | 3.58282 | 16984 ft | 284 kts | 229° |
| 2026-05-07 15:12 | 44.85013 | 3.56157 | 16983 ft | 284 kts | 229° |
| 2026-05-07 15:12 | 44.83752 | 3.54062 | 16986 ft | 284 kts | 229° |
| 2026-05-07 15:12 | 44.82469 | 3.51932 | 16982 ft | 285 kts | 229° |
| 2026-05-07 15:13 | 44.81187 | 3.49807 | 16982 ft | 284 kts | 229° |
| 2026-05-07 15:13 | 44.79908 | 3.47683 | 16981 ft | 284 kts | 229° |
| 2026-05-07 15:13 | 44.78627 | 3.45562 | 16981 ft | 284 kts | 229° |
| 2026-05-07 15:13 | 44.77348 | 3.43445 | 16981 ft | 284 kts | 229° |
| 2026-05-07 15:14 | 44.76066 | 3.41323 | 16981 ft | 284 kts | 229° |
| 2026-05-07 15:14 | 44.74789 | 3.39208 | 16975 ft | 284 kts | 229° |
| 2026-05-07 15:14 | 44.73506 | 3.37095 | 16979 ft | 284 kts | 229° |
| 2026-05-07 15:14 | 44.72227 | 3.34984 | 16978 ft | 284 kts | 229° |
| 2026-05-07 15:15 | 44.70949 | 3.32868 | 16978 ft | 284 kts | 229° |
| 2026-05-07 15:15 | 44.69681 | 3.30785 | 16977 ft | 283 kts | 229° |
| 2026-05-07 15:15 | 44.68401 | 3.28679 | 16975 ft | 283 kts | 229° |
| 2026-05-07 15:15 | 44.67118 | 3.26568 | 16975 ft | 283 kts | 229° |
| 2026-05-07 15:16 | 44.65840 | 3.24461 | 16976 ft | 283 kts | 229° |
| 2026-05-07 15:16 | 44.64560 | 3.22360 | 16977 ft | 283 kts | 229° |
| 2026-05-07 15:16 | 44.63281 | 3.20263 | 16977 ft | 283 kts | 229° |
| 2026-05-07 15:16 | 44.62002 | 3.18164 | 16976 ft | 282 kts | 229° |
| 2026-05-07 15:17 | 44.60740 | 3.16059 | 16971 ft | 282 kts | 232° |
| 2026-05-07 15:17 | 44.59646 | 3.13772 | 16969 ft | 282 kts | 236° |
| 2026-05-07 15:17 | 44.58573 | 3.11457 | 16978 ft | 282 kts | 236° |
| 2026-05-07 15:17 | 44.57485 | 3.09170 | 16975 ft | 282 kts | 235° |
| 2026-05-07 15:18 | 44.56392 | 3.06887 | 16978 ft | 282 kts | 236° |
| 2026-05-07 15:18 | 44.55306 | 3.04601 | 16974 ft | 282 kts | 236° |
| 2026-05-07 15:18 | 44.54218 | 3.02310 | 16981 ft | 282 kts | 236° |
| 2026-05-07 15:18 | 44.53123 | 3.00024 | 16978 ft | 282 kts | 235° |
| 2026-05-07 15:19 | 44.52001 | 2.97762 | 16979 ft | 282 kts | 234° |
| 2026-05-07 15:19 | 44.50879 | 2.95508 | 16977 ft | 282 kts | 234° |
| 2026-05-07 15:19 | 44.49770 | 2.93244 | 16975 ft | 282 kts | 235° |
| 2026-05-07 15:19 | 44.48658 | 2.90980 | 16974 ft | 282 kts | 235° |
| 2026-05-07 15:20 | 44.47547 | 2.88727 | 16978 ft | 281 kts | 235° |
| 2026-05-07 15:20 | 44.46436 | 2.86475 | 16976 ft | 281 kts | 234° |
| 2026-05-07 15:20 | 44.45324 | 2.84225 | 16979 ft | 281 kts | 234° |
| 2026-05-07 15:20 | 44.44210 | 2.81965 | 16976 ft | 281 kts | 235° |
| 2026-05-07 15:21 | 44.43136 | 2.79719 | 16975 ft | 281 kts | 236° |
| 2026-05-07 15:21 | 44.42050 | 2.77443 | 16974 ft | 281 kts | 235° |
| 2026-05-07 15:21 | 44.40957 | 2.75176 | 16976 ft | 281 kts | 235° |
| 2026-05-07 15:21 | 44.39859 | 2.72909 | 16974 ft | 281 kts | 235° |
| 2026-05-07 15:22 | 44.38764 | 2.70649 | 16972 ft | 281 kts | 235° |
| 2026-05-07 15:22 | 44.37673 | 2.68385 | 16971 ft | 280 kts | 235° |
| 2026-05-07 15:22 | 44.36580 | 2.66125 | 16973 ft | 280 kts | 235° |
| 2026-05-07 15:22 | 44.35484 | 2.63867 | 16969 ft | 280 kts | 235° |
| 2026-05-07 15:23 | 44.34391 | 2.61608 | 16971 ft | 280 kts | 235° |
| 2026-05-07 15:23 | 44.33300 | 2.59358 | 16970 ft | 280 kts | 235° |
| 2026-05-07 15:23 | 44.32209 | 2.57106 | 16969 ft | 280 kts | 235° |
| 2026-05-07 15:23 | 44.31117 | 2.54856 | 16970 ft | 280 kts | 235° |
| 2026-05-07 15:24 | 44.30035 | 2.52644 | 16970 ft | 279 kts | 235° |
| 2026-05-07 15:24 | 44.28944 | 2.50398 | 16971 ft | 279 kts | 235° |
| 2026-05-07 15:24 | 44.27856 | 2.48151 | 16971 ft | 279 kts | 235° |
| 2026-05-07 15:24 | 44.26762 | 2.45912 | 16971 ft | 279 kts | 235° |
| 2026-05-07 15:25 | 44.25669 | 2.43672 | 16969 ft | 279 kts | 235° |
| 2026-05-07 15:25 | 44.24577 | 2.41434 | 16973 ft | 279 kts | 235° |
| 2026-05-07 15:25 | 44.23485 | 2.39197 | 16976 ft | 279 kts | 235° |
| 2026-05-07 15:25 | 44.22393 | 2.36961 | 16977 ft | 279 kts | 235° |
| 2026-05-07 15:26 | 44.21298 | 2.34726 | 16978 ft | 279 kts | 235° |
| 2026-05-07 15:26 | 44.20203 | 2.32491 | 16976 ft | 279 kts | 235° |
| 2026-05-07 15:26 | 44.19110 | 2.30252 | 16975 ft | 279 kts | 235° |
| 2026-05-07 15:26 | 44.18016 | 2.28018 | 16979 ft | 279 kts | 235° |
| 2026-05-07 15:27 | 44.16917 | 2.25782 | 16978 ft | 280 kts | 235° |
| 2026-05-07 15:27 | 44.15816 | 2.23547 | 16977 ft | 280 kts | 235° |
| 2026-05-07 15:27 | 44.14716 | 2.21305 | 16975 ft | 280 kts | 235° |
| 2026-05-07 15:27 | 44.13633 | 2.19101 | 16975 ft | 280 kts | 235° |
| 2026-05-07 15:28 | 44.12535 | 2.16868 | 16975 ft | 279 kts | 235° |
| 2026-05-07 15:28 | 44.11436 | 2.14637 | 16976 ft | 279 kts | 235° |
| 2026-05-07 15:28 | 44.10330 | 2.12415 | 16977 ft | 279 kts | 235° |
| 2026-05-07 15:28 | 44.09228 | 2.10189 | 16979 ft | 280 kts | 235° |
| 2026-05-07 15:29 | 44.08126 | 2.07961 | 16975 ft | 279 kts | 235° |
| 2026-05-07 15:29 | 44.07019 | 2.05735 | 16978 ft | 279 kts | 235° |
| 2026-05-07 15:29 | 44.05919 | 2.03513 | 16978 ft | 279 kts | 235° |
| 2026-05-07 15:29 | 44.04813 | 2.01293 | 16979 ft | 279 kts | 234° |
| 2026-05-07 15:30 | 44.03708 | 1.99075 | 16977 ft | 279 kts | 235° |
| 2026-05-07 15:30 | 44.02548 | 1.96822 | 16305 ft | 295 kts | 232° |
| 2026-05-07 15:30 | 44.01344 | 1.94556 | 16383 ft | 288 kts | 236° |
| 2026-05-07 15:30 | 44.00281 | 1.92224 | 16428 ft | 284 kts | 237° |
| 2026-05-07 15:31 | 43.99211 | 1.89976 | 16460 ft | 281 kts | 235° |
| 2026-05-07 15:31 | 43.98082 | 1.87768 | 16478 ft | 279 kts | 234° |
| 2026-05-07 15:31 | 43.96961 | 1.85573 | 16499 ft | 278 kts | 233° |
| 2026-05-07 15:31 | 43.95574 | 1.83718 | 16510 ft | 279 kts | 213° |
| 2026-05-07 15:32 | 43.93766 | 1.82776 | 16523 ft | 281 kts | 191° |
| 2026-05-07 15:32 | 43.91810 | 1.82835 | 16550 ft | 282 kts | 174° |
| 2026-05-07 15:32 | 43.89986 | 1.83220 | 17364 ft | 254 kts | 173° |
| 2026-05-07 15:32 | 43.88166 | 1.83581 | 17106 ft | 270 kts | 176° |
| 2026-05-07 15:33 | 43.86271 | 1.83793 | 17020 ft | 277 kts | 177° |
| 2026-05-07 15:33 | 43.84350 | 1.84006 | 17003 ft | 279 kts | 178° |
| 2026-05-07 15:33 | 43.82403 | 1.84151 | 16982 ft | 281 kts | 180° |
| 2026-05-07 15:33 | 43.80443 | 1.84227 | 16988 ft | 282 kts | 180° |
| 2026-05-07 15:34 | 43.78508 | 1.84385 | 16989 ft | 283 kts | 177° |
| 2026-05-07 15:34 | 43.76549 | 1.84657 | 16989 ft | 283 kts | 176° |
| 2026-05-07 15:34 | 43.74584 | 1.84902 | 16988 ft | 283 kts | 177° |
| 2026-05-07 15:34 | 43.72615 | 1.85127 | 16991 ft | 284 kts | 177° |
| 2026-05-07 15:35 | 43.70649 | 1.85356 | 16992 ft | 284 kts | 177° |
| 2026-05-07 15:35 | 43.68679 | 1.85587 | 16993 ft | 284 kts | 177° |
| 2026-05-07 15:35 | 43.66709 | 1.85823 | 16990 ft | 284 kts | 177° |
| 2026-05-07 15:35 | 43.64739 | 1.86055 | 16989 ft | 284 kts | 177° |
| 2026-05-07 15:36 | 43.62765 | 1.86288 | 16987 ft | 284 kts | 177° |
| 2026-05-07 15:36 | 43.60796 | 1.86515 | 16987 ft | 284 kts | 177° |
| 2026-05-07 15:36 | 43.58826 | 1.86747 | 16986 ft | 284 kts | 177° |
| 2026-05-07 15:36 | 43.56858 | 1.86983 | 16981 ft | 284 kts | 177° |
| 2026-05-07 15:37 | 43.54883 | 1.87218 | 16984 ft | 284 kts | 177° |
| 2026-05-07 15:37 | 43.52918 | 1.87439 | 16980 ft | 284 kts | 177° |
| 2026-05-07 15:37 | 43.50941 | 1.87673 | 16982 ft | 284 kts | 177° |
| 2026-05-07 15:37 | 43.48970 | 1.87905 | 16977 ft | 285 kts | 177° |
| 2026-05-07 15:38 | 43.47020 | 1.88134 | 16975 ft | 284 kts | 177° |
| 2026-05-07 15:38 | 43.45033 | 1.88365 | 16974 ft | 283 kts | 177° |
| 2026-05-07 15:38 | 43.43092 | 1.88598 | 16968 ft | 284 kts | 177° |
| 2026-05-07 15:38 | 43.41120 | 1.88830 | 16971 ft | 284 kts | 177° |
| 2026-05-07 15:39 | 43.39145 | 1.89054 | 16968 ft | 285 kts | 177° |
| 2026-05-07 15:39 | 43.37171 | 1.89287 | 16964 ft | 285 kts | 177° |
| 2026-05-07 15:39 | 43.35189 | 1.89520 | 16961 ft | 285 kts | 177° |
| 2026-05-07 15:39 | 43.33214 | 1.89749 | 16961 ft | 285 kts | 177° |
| 2026-05-07 15:40 | 43.31236 | 1.89992 | 16960 ft | 285 kts | 176° |
| 2026-05-07 15:40 | 43.29258 | 1.90245 | 16957 ft | 285 kts | 176° |
| 2026-05-07 15:40 | 43.27283 | 1.90497 | 16955 ft | 285 kts | 176° |
| 2026-05-07 15:40 | 43.25312 | 1.90743 | 16958 ft | 285 kts | 176° |
| 2026-05-07 15:41 | 43.23335 | 1.90981 | 16956 ft | 285 kts | 176° |
| 2026-05-07 15:41 | 43.21359 | 1.91229 | 16954 ft | 285 kts | 176° |
| 2026-05-07 15:41 | 43.19384 | 1.91475 | 16955 ft | 285 kts | 176° |
| 2026-05-07 15:41 | 43.17410 | 1.91724 | 16957 ft | 285 kts | 176° |
| 2026-05-07 15:42 | 43.15461 | 1.91965 | 16954 ft | 284 kts | 176° |
| 2026-05-07 15:42 | 43.13489 | 1.92208 | 16958 ft | 285 kts | 176° |
| 2026-05-07 15:42 | 43.11513 | 1.92455 | 16959 ft | 285 kts | 176° |
| 2026-05-07 15:42 | 43.09539 | 1.92698 | 16954 ft | 285 kts | 176° |
| 2026-05-07 15:43 | 43.07571 | 1.92945 | 16956 ft | 284 kts | 176° |
| 2026-05-07 15:43 | 43.05603 | 1.93174 | 16957 ft | 284 kts | 177° |
| 2026-05-07 15:43 | 43.03638 | 1.93382 | 16957 ft | 284 kts | 177° |
| 2026-05-07 15:43 | 43.01672 | 1.93601 | 16966 ft | 283 kts | 177° |
| 2026-05-07 15:44 | 42.99706 | 1.93827 | 16962 ft | 283 kts | 176° |
| 2026-05-07 15:44 | 42.97737 | 1.94051 | 16869 ft | 285 kts | 177° |
| 2026-05-07 15:44 | 42.95785 | 1.94249 | 16734 ft | 276 kts | 177° |
| 2026-05-07 15:44 | 42.93899 | 1.94459 | 16601 ft | 268 kts | 176° |
| 2026-05-07 15:45 | 42.92062 | 1.94685 | 16467 ft | 263 kts | 176° |
| 2026-05-07 15:45 | 42.90256 | 1.94892 | 16334 ft | 259 kts | 177° |
| 2026-05-07 15:45 | 42.88471 | 1.95092 | 16207 ft | 256 kts | 177° |
| 2026-05-07 15:45 | 42.86699 | 1.95289 | 16077 ft | 255 kts | 177° |
| 2026-05-07 15:46 | 42.83189 | 1.95685 | 15820 ft | 252 kts | 176° |
| 2026-05-07 15:46 | 42.82031 | 1.95814 | 15735 ft | 251 kts | 177° |
| 2026-05-07 15:46 | 42.79724 | 1.96071 | 15565 ft | 250 kts | 177° |
| 2026-05-07 15:47 | 42.77991 | 1.96264 | 15444 ft | 250 kts | 177° |
| 2026-05-07 15:47 | 42.76259 | 1.96459 | 15320 ft | 249 kts | 176° |
| 2026-05-07 15:47 | 42.75093 | 1.96589 | 15231 ft | 249 kts | 177° |
| 2026-05-07 15:47 | 42.73364 | 1.96780 | 15115 ft | 249 kts | 176° |
| 2026-05-07 15:48 | 42.71637 | 1.96976 | 14991 ft | 248 kts | 176° |
| 2026-05-07 15:48 | 42.69914 | 1.97169 | 14865 ft | 248 kts | 177° |
| 2026-05-07 15:48 | 42.68200 | 1.97356 | 14745 ft | 246 kts | 176° |
| 2026-05-07 15:48 | 42.66488 | 1.97551 | 14628 ft | 247 kts | 176° |
| 2026-05-07 15:49 | 42.64796 | 1.97738 | 14505 ft | 247 kts | 177° |
| 2026-05-07 15:49 | 42.63086 | 1.97927 | 14386 ft | 246 kts | 176° |
| 2026-05-07 15:49 | 42.61374 | 1.98118 | 14205 ft | 247 kts | 176° |
| 2026-05-07 15:49 | 42.59660 | 1.98309 | 14022 ft | 248 kts | 177° |
| 2026-05-07 15:50 | 42.57963 | 1.98483 | 13781 ft | 238 kts | 178° |
| 2026-05-07 15:50 | 42.56343 | 1.98660 | 13513 ft | 230 kts | 176° |
| 2026-05-07 15:50 | 42.54771 | 1.98848 | 13236 ft | 224 kts | 177° |
| 2026-05-07 15:50 | 42.53235 | 1.99024 | 12970 ft | 220 kts | 177° |
| 2026-05-07 15:51 | 42.51714 | 1.99190 | 12703 ft | 218 kts | 177° |
| 2026-05-07 15:51 | 42.50203 | 1.99360 | 12430 ft | 218 kts | 177° |
| 2026-05-07 15:51 | 42.48693 | 1.99517 | 12038 ft | 216 kts | 178° |
| 2026-05-07 15:51 | 42.47204 | 1.99671 | 11660 ft | 214 kts | 178° |
| 2026-05-07 15:52 | 42.45725 | 1.99816 | 11283 ft | 212 kts | 178° |
| 2026-05-07 15:52 | 42.44255 | 1.99961 | 10904 ft | 211 kts | 178° |
| 2026-05-07 15:52 | 42.42799 | 2.00013 | 10529 ft | 208 kts | 191° |
| 2026-05-07 15:52 | 42.41575 | 1.99083 | 10159 ft | 204 kts | 231° |
| 2026-05-07 15:53 | 42.41103 | 1.97361 | 10005 ft | 194 kts | 264° |
| 2026-05-07 15:53 | 42.40941 | 1.95607 | 10003 ft | 183 kts | 258° |
| 2026-05-07 15:53 | 42.40675 | 1.93932 | 9860 ft | 184 kts | 257° |
| 2026-05-07 15:53 | 42.40401 | 1.92214 | 9628 ft | 186 kts | 258° |
| 2026-05-07 15:54 | 42.40131 | 1.90513 | 9490 ft | 184 kts | 257° |
| 2026-05-07 15:54 | 42.39867 | 1.88835 | 9360 ft | 181 kts | 257° |
| 2026-05-07 15:54 | 42.39608 | 1.87184 | 9225 ft | 178 kts | 257° |
| 2026-05-07 15:54 | 42.39356 | 1.85576 | 9097 ft | 176 kts | 257° |
| 2026-05-07 15:55 | 42.39103 | 1.83963 | 8953 ft | 175 kts | 257° |
| 2026-05-07 15:55 | 42.38854 | 1.82359 | 8822 ft | 173 kts | 257° |
| 2026-05-07 15:55 | 42.38608 | 1.80751 | 8603 ft | 176 kts | 257° |
| 2026-05-07 15:55 | 42.38360 | 1.79112 | 8378 ft | 179 kts | 257° |
| 2026-05-07 15:56 | 42.38110 | 1.77461 | 8152 ft | 180 kts | 257° |
| 2026-05-07 15:56 | 42.37861 | 1.75799 | 7922 ft | 180 kts | 258° |
| 2026-05-07 15:56 | 42.37608 | 1.74132 | 7701 ft | 181 kts | 257° |
| 2026-05-07 15:56 | 42.37360 | 1.72465 | 7469 ft | 181 kts | 257° |
| 2026-05-07 15:57 | 42.37113 | 1.70793 | 7225 ft | 182 kts | 257° |
| 2026-05-07 15:57 | 42.36868 | 1.69111 | 6976 ft | 182 kts | 257° |
| 2026-05-07 15:57 | 42.36628 | 1.67432 | 6736 ft | 182 kts | 257° |
| 2026-05-07 15:57 | 42.36393 | 1.65770 | 6495 ft | 182 kts | 258° |
| 2026-05-07 15:58 | 42.36156 | 1.64087 | 6249 ft | 182 kts | 257° |
| 2026-05-07 15:58 | 42.35924 | 1.62419 | 5982 ft | 180 kts | 258° |
| 2026-05-07 15:58 | 42.35709 | 1.60761 | 5788 ft | 175 kts | 260° |
| 2026-05-07 15:58 | 42.35563 | 1.59178 | 5676 ft | 164 kts | 261° |
| 2026-05-07 15:59 | 42.35524 | 1.57671 | 5563 ft | 157 kts | 269° |
| 2026-05-07 15:59 | 42.35542 | 1.56227 | 5424 ft | 150 kts | 269° |
| 2026-05-07 15:59 | 42.35582 | 1.54851 | 5187 ft | 144 kts | 271° |
| 2026-05-07 15:59 | 42.35642 | 1.53532 | 4995 ft | 138 kts | 272° |
| 2026-05-07 16:00 | 42.35719 | 1.52243 | 4824 ft | 138 kts | 274° |
| 2026-05-07 16:00 | 42.35792 | 1.50961 | 4663 ft | 137 kts | 274° |
| 2026-05-07 16:00 | 42.35884 | 1.49689 | 4541 ft | 137 kts | 274° |
| 2026-05-07 16:00 | 42.35992 | 1.48431 | 4430 ft | 134 kts | 277° |
| 2026-05-07 16:01 | 42.36122 | 1.47203 | 4324 ft | 131 kts | 276° |
| 2026-05-07 16:01 | 42.36247 | 1.46000 | 4260 ft | 122 kts | 274° |
| 2026-05-07 16:01 | 42.36248 | 1.44989 | 4211 ft | 99 kts | 252° |
| 2026-05-07 16:01 | 42.36153 | 1.44088 | 3953 ft | 95 kts | 262° |
| 2026-05-07 16:02 | 42.36025 | 1.43208 | 3598 ft | 96 kts | 245° |
| 2026-05-07 16:02 | 42.35707 | 1.42424 | 3192 ft | 91 kts | 232° |
| 2026-05-07 16:02 | 42.35236 | 1.41951 | 2910 ft | 82 kts | 207° |
| 2026-05-07 16:02 | 42.34745 | 1.41579 | 2690 ft | 79 kts | 208° |
| 2026-05-07 16:03 | 42.34341 | 1.41267 | 2633 ft | 54 kts | 209° |
| 2026-05-07 16:03 | 42.34052 | 1.41019 | 2633 ft | 49 kts | 213° |
| 2026-05-07 16:03 | 42.33841 | 1.40836 | 2632 ft | 27 kts | 223° |
| 2026-05-07 16:03 | 42.33751 | 1.40674 | 2634 ft | 12 kts | 237° |
| 2026-05-07 16:04 | 42.33731 | 1.40596 | 2633 ft | 17 kts | 292° |
| 2026-05-07 16:04 | 42.33761 | 1.40514 | 2632 ft | 6 kts | 301° |
| 2026-05-07 16:04 | 42.33781 | 1.40456 | 2632 ft | 7 kts | 266° |
| 2026-05-07 16:04 | 42.33779 | 1.40439 | 2632 ft | 0 kts | 261° |